»·PEaware :: N805RJ F70-L65

N805RJ :: F70-L65

FLIGHT INFORMATION

Flight Status: Arrived
Operator: Privately registered:
United States
More flights under this callsign
Pilot: Rickie J. (22768)
Aircraft: CESSNA 172 SKYHAWK
(C172)
More flights by this aircraft type
Origin: F70 French Valley
United States
Destination: L65 Perris Valley
United States
More flights between these airports :: More routes between these airports
Route: TANNR V186 V458 V514 V64 PERIS
File this flight plan on PilotEdge
Remarks:
Altitude:
(Current/Filed)
11,500ft
Speed:
(Current/Filed)
120kts
Departed: 21-Jul-20 01:57 PM
Arrived: 21-Jul-20 03:10 PM
Distance/Time
Traveled:
12nm/1:13
Distance/Time
To Go:
Arrived

Flight Plot

Page will automatically refresh every two minutes.

Flight plan parsing failed; only flown route is shown


Map Options




Map Legend


Flown Route
Filed Route
Departure Airport
Arrival Airport
Navaid (VOR, NDB)
Fix

Horizontal Profiles

Position Reports

Time Latitude Longitude Heading Altitude Ground
Speed
21-Jul-20 13:25 33.575616 -117.130600 107 1354ft 0kts
21-Jul-20 13:26 33.575616 -117.130600 107 1354ft 0kts
21-Jul-20 13:27 33.575616 -117.130600 107 1354ft 0kts
21-Jul-20 13:28 33.575616 -117.130600 107 1354ft 0kts
21-Jul-20 13:29 33.575616 -117.130599 107 1354ft 0kts
21-Jul-20 13:30 33.575616 -117.130599 107 1354ft 0kts
21-Jul-20 13:31 33.575616 -117.130599 107 1354ft 0kts
21-Jul-20 13:32 33.575616 -117.130599 107 1354ft 0kts
21-Jul-20 13:33 33.575616 -117.130599 107 1354ft 0kts
21-Jul-20 13:34 33.575616 -117.130599 107 1354ft 0kts
21-Jul-20 13:35 33.575616 -117.130599 107 1354ft 0kts
21-Jul-20 13:36 33.575616 -117.130599 107 1354ft 0kts
21-Jul-20 13:37 33.575616 -117.130599 107 1354ft 0kts
21-Jul-20 13:38 33.575616 -117.130599 107 1354ft 0kts
21-Jul-20 13:39 33.575616 -117.130599 107 1354ft 0kts
21-Jul-20 13:40 33.575616 -117.130599 107 1354ft 0kts
21-Jul-20 13:41 33.575616 -117.130599 107 1354ft 0kts
21-Jul-20 13:42 33.575616 -117.130599 107 1354ft 0kts
21-Jul-20 13:43 33.575616 -117.130599 107 1354ft 0kts
21-Jul-20 13:44 33.575616 -117.130599 107 1354ft 0kts
21-Jul-20 13:44 33.575616 -117.130599 107 1354ft 0kts
21-Jul-20 13:46 33.575616 -117.130599 107 1354ft 0kts
21-Jul-20 13:46 33.575615 -117.130597 107 1354ft 0kts
21-Jul-20 13:47 33.575449 -117.130356 104 1354ft 1kts
21-Jul-20 13:49 33.575681 -117.128904 12 1354ft 5kts
21-Jul-20 13:49 33.577158 -117.128518 12 1354ft 7kts
21-Jul-20 13:50 33.579251 -117.127965 12 1354ft 8kts
21-Jul-20 13:51 33.581623 -117.127396 357 1354ft 10kts
21-Jul-20 13:52 33.582397 -117.127473 81 1354ft 0kts
21-Jul-20 13:53 33.582397 -117.127474 81 1354ft 0kts
21-Jul-20 13:54 33.582341 -117.127203 105 1354ft 1kts
21-Jul-20 13:55 33.581906 -117.126457 191 1354ft 6kts
21-Jul-20 13:56 33.562888 -117.131470 192 1435ft 107kts
21-Jul-20 13:57 33.536507 -117.135194 188 2212ft 88kts
21-Jul-20 13:58 33.513127 -117.137670 187 2986ft 84kts
21-Jul-20 13:59 33.492173 -117.146317 224 3667ft 84kts
21-Jul-20 14:00 33.471304 -117.158012 181 4282ft 91kts
21-Jul-20 14:01 33.445794 -117.154456 173 4883ft 93kts
21-Jul-20 14:02 33.420628 -117.149291 172 5462ft 91kts
21-Jul-20 14:03 33.395810 -117.144032 171 6014ft 92kts
21-Jul-20 14:04 33.370557 -117.138698 171 6508ft 95kts
21-Jul-20 14:05 33.345108 -117.133312 171 6997ft 94kts
21-Jul-20 14:06 33.320983 -117.128198 171 7457ft 93kts
21-Jul-20 14:07 33.296435 -117.123010 171 7837ft 96kts
21-Jul-20 14:08 33.272737 -117.118001 171 8193ft 97kts
21-Jul-20 14:09 33.247252 -117.112611 171 8574ft 96kts
21-Jul-20 14:10 33.222382 -117.107351 171 8948ft 95kts
21-Jul-20 14:11 33.203514 -117.089013 109 9320ft 101kts
21-Jul-20 14:12 33.197884 -117.055043 101 9621ft 106kts
21-Jul-20 14:13 33.193605 -117.020331 101 9916ft 107kts
21-Jul-20 14:14 33.189367 -116.985202 101 10212ft 106kts
21-Jul-20 14:15 33.185130 -116.950096 101 10508ft 106kts
21-Jul-20 14:16 33.180938 -116.915436 101 10802ft 105kts
21-Jul-20 14:17 33.176780 -116.881159 100 11097ft 104kts
21-Jul-20 14:18 33.172643 -116.847163 100 11364ft 105kts
21-Jul-20 14:19 33.168330 -116.811757 100 11507ft 114kts
21-Jul-20 14:20 33.163547 -116.772313 100 11504ft 122kts
21-Jul-20 14:21 33.158621 -116.731902 100 11503ft 124kts
21-Jul-20 14:22 33.153623 -116.691181 100 11503ft 124kts
21-Jul-20 14:23 33.148565 -116.650126 100 11503ft 124kts
21-Jul-20 14:24 33.143511 -116.609211 100 11503ft 124kts
21-Jul-20 14:25 33.157918 -116.573713 41 11358ft 137kts
21-Jul-20 14:26 33.187349 -116.546047 37 11384ft 130kts
21-Jul-20 14:27 33.216029 -116.520717 37 11477ft 125kts
21-Jul-20 14:28 33.244461 -116.495909 36 11499ft 128kts
21-Jul-20 14:29 33.273618 -116.470523 36 11499ft 129kts
21-Jul-20 14:30 33.302906 -116.445026 36 11499ft 130kts
21-Jul-20 14:31 33.332381 -116.419346 36 11499ft 130kts
21-Jul-20 14:32 33.361852 -116.393644 36 11499ft 130kts
21-Jul-20 14:33 33.391288 -116.367949 36 11499ft 130kts
21-Jul-20 14:34 33.420191 -116.342695 37 11446ft 133kts
21-Jul-20 14:35 33.449418 -116.317142 37 11464ft 129kts
21-Jul-20 14:36 33.477325 -116.292725 37 11557ft 125kts
21-Jul-20 14:37 33.505592 -116.267961 37 11541ft 131kts
21-Jul-20 14:38 33.534903 -116.242267 37 11505ft 131kts
21-Jul-20 14:39 33.564089 -116.216664 37 11505ft 130kts
21-Jul-20 14:40 33.592816 -116.191440 37 11505ft 130kts
21-Jul-20 14:41 33.622719 -116.169461 356 11410ft 138kts
21-Jul-20 14:42 33.634593 -116.207046 267 11034ft 141kts
21-Jul-20 14:43 33.636772 -116.253820 272 10641ft 143kts
21-Jul-20 14:44 33.640487 -116.299797 272 10503ft 132kts
21-Jul-20 14:45 33.644213 -116.342898 272 10504ft 129kts
21-Jul-20 14:46 33.647991 -116.386029 272 10504ft 128kts
21-Jul-20 14:47 33.651655 -116.427806 272 10557ft 125kts
21-Jul-20 14:48 33.655341 -116.470101 273 10506ft 130kts
21-Jul-20 14:49 33.659102 -116.513311 272 10507ft 129kts
21-Jul-20 14:50 33.662784 -116.555649 273 10506ft 129kts
21-Jul-20 14:51 33.666620 -116.599485 273 10276ft 141kts
21-Jul-20 14:52 33.670782 -116.647369 273 9676ft 141kts
21-Jul-20 14:53 33.674594 -116.691845 272 9093ft 136kts
21-Jul-20 14:54 33.678296 -116.735302 273 8519ft 135kts
21-Jul-20 14:55 33.681812 -116.776736 273 7966ft 135kts
21-Jul-20 14:56 33.685414 -116.819348 273 7398ft 134kts
21-Jul-20 14:57 33.689125 -116.863406 273 6809ft 134kts
21-Jul-20 14:58 33.692854 -116.907936 274 6213ft 134kts
21-Jul-20 14:59 33.696568 -116.952484 275 5620ft 134kts
21-Jul-20 15:00 33.700240 -116.996737 275 5019ft 135kts
21-Jul-20 15:01 33.704106 -117.043106 272 4450ft 135kts
21-Jul-20 15:02 33.707115 -117.079844 274 3913ft 104kts
21-Jul-20 15:03 33.709897 -117.113853 274 3316ft 102kts
21-Jul-20 15:04 33.712565 -117.146586 275 2751ft 84kts
21-Jul-20 15:05 33.714553 -117.171646 281 2403ft 70kts
21-Jul-20 15:06 33.717987 -117.193807 315 2291ft 65kts
21-Jul-20 15:07 33.732575 -117.207235 324 1987ft 66kts
21-Jul-20 15:08 33.750018 -117.214623 339 1637ft 64kts
21-Jul-20 15:09 33.763511 -117.218676 337 1417ft 8kts
21-Jul-20 15:10 33.763622 -117.218864 203 1417ft 0kts
21-Jul-20 15:11 33.762635 -117.218673 165 1417ft 6kts
21-Jul-20 15:12 33.761328 -117.218549 297 1417ft 0kts
21-Jul-20 15:13 33.761448 -117.218601 52 1417ft 0kts
21-Jul-20 15:14 33.761448 -117.218601 52 1417ft 0kts
21-Jul-20 15:15 33.761448 -117.218601 52 1417ft 0kts
21-Jul-20 15:16 33.761448 -117.218601 52 1417ft 0kts
21-Jul-20 15:17 33.761448 -117.218601 52 1417ft 0kts

Navigation Log

Ident Type
Flight plan parsing failed, navigation log unavailable